CheckWX is a tool to help pilots better visualize weather data.  It is not intended as a substitute for an official pre-flight weather briefing.

20:53:44 UTC

KLYH METAR
Lynchburg Regional / Preston Glenn Field Airport
Lynchburg, Virginia, USA
Current

60 mins ago

KLYH 201954Z 21010G19KT 10SM -RA FEW048 SCT060 OVC085 14/05 A2970 RMK AO2 SLP053 P0000 T01440050
Observed
Apr-20 @ 19:54 UTC
Wind
  • 210° at 10 KTS
  • Gusting to 19 KTS
Visibility
10 SM
Flight Rules
VFR
Conditions
Light Rain
Cloud Levels
  • Few at 4,800' AGL
  • Scattered at 6,000' AGL
  • Overcast at 8,500' AGL
Temperature
14°C / 57°F
Dewpoint
C / 41°F
Humidity
55%
Altimeter
29.7" Hg
Pressure
1005.72 hPa
Current Rain
0.01"
Previous

2 hours ago

KLYH 201854Z 21009G20KT 10SM -RA BKN048 BKN060 OVC070 14/04 A2970 RMK AO2 SLP052 P0000 T01440044
Observed
Apr-20 @ 18:54 UTC
Wind
  • 210° at 9 KTS
  • Gusting to 20 KTS
Visibility
10 SM
Flight Rules
VFR
Conditions
Light Rain
Cloud Levels
  • Broken at 4,800' AGL
  • Broken at 6,000' AGL
  • Overcast at 7,000' AGL
Temperature
14°C / 57°F
Dewpoint
C / 39°F
Humidity
51%
Altimeter
29.7" Hg
Pressure
1005.72 hPa
Current Rain
0.01"
Previous

3 hours ago

KLYH 201754Z 20014KT 10SM -RA SCT050 OVC060 16/04 A2969 RMK AO2 SLP050 P0000 60000 T01560044 10167 20122 53008
Observed
Apr-20 @ 17:54 UTC
Wind
  • 200° at 14 KTS
Visibility
10 SM
Flight Rules
VFR
Conditions
Light Rain
Cloud Levels
  • Scattered at 5,000' AGL
  • Overcast at 6,000' AGL
Temperature
16°C / 61°F
Dewpoint
C / 39°F
Humidity
45%
Altimeter
29.69" Hg
Pressure
1005.42 hPa
Current Rain
0.01"